Time;durP1;ratioP1;P1;durP2;ratioP2;P2;SDS_P1;SDS_P2;PMS_P1;PMS_P2;Temp;Humidity;BMP_temperature;BMP_pressure;BME280_temperature;BME280_humidity;BME280_pressure;Samples;Min_cycle;Max_cycle;Signal;HPM_P1;HPM_P2
2022/03/10 00:01:50;;;;;;;17.10;11.93;;;4.90;60.40;;;;;;4916951;29;20047;-67
2022/03/10 00:04:16;;;;;;;25.15;14.25;;;4.90;60.30;;;;;;4931123;29;20039;-67
2022/03/10 00:06:41;;;;;;;17.50;12.07;;;4.90;59.90;;;;;;4914572;29;20087;-68
2022/03/10 00:09:07;;;;;;;18.65;12.15;;;4.90;59.80;;;;;;4913919;29;20126;-67
2022/03/10 00:11:33;;;;;;;19.30;12.75;;;4.80;59.80;;;;;;4914247;29;20505;-68
2022/03/10 00:13:58;;;;;;;18.75;11.55;;;4.90;59.70;;;;;;4931821;29;20048;-68
2022/03/10 00:16:25;;;;;;;20.60;12.45;;;4.80;59.60;;;;;;4932364;29;20088;-68
2022/03/10 00:18:51;;;;;;;18.80;12.27;;;4.80;59.60;;;;;;4916797;29;20048;-67
2022/03/10 00:21:16;;;;;;;17.58;11.48;;;4.80;59.50;;;;;;4914160;29;20044;-67
2022/03/10 00:23:42;;;;;;;21.80;13.38;;;4.90;59.40;;;;;;4914550;29;20068;-67
2022/03/10 00:26:07;;;;;;;22.67;12.77;;;4.90;59.50;;;;;;4913940;29;20036;-66
2022/03/10 00:28:33;;;;;;;21.20;11.90;;;4.90;59.50;;;;;;4915754;29;20086;-67
2022/03/10 00:30:59;;;;;;;21.88;12.65;;;4.90;59.50;;;;;;4914471;29;20048;-67
2022/03/10 00:33:25;;;;;;;25.80;14.32;;;4.90;59.60;;;;;;4907521;29;20056;-67
2022/03/10 00:35:51;;;;;;;20.13;13.00;;;4.90;59.70;;;;;;4917643;29;20047;-67
2022/03/10 00:38:17;;;;;;;21.20;12.70;;;4.80;59.70;;;;;;4891475;29;20044;-67
2022/03/10 00:40:43;;;;;;;19.90;12.50;;;4.80;59.60;;;;;;4913997;29;20469;-67
2022/03/10 00:43:12;;;;;;;19.20;12.63;;;4.90;59.50;;;;;;4919234;29;20054;-67
2022/03/10 00:45:39;;;;;;;17.05;11.77;;;4.90;59.50;;;;;;4933003;29;20452;-67
2022/03/10 00:48:05;;;;;;;18.73;12.45;;;4.80;59.60;;;;;;4925676;29;20535;-68
2022/03/10 00:50:30;;;;;;;23.25;12.50;;;4.80;59.50;;;;;;4913419;29;20088;-66
2022/03/10 00:52:56;;;;;;;18.88;11.75;;;4.70;59.50;;;;;;4917309;29;20079;-67
2022/03/10 00:55:22;;;;;;;18.80;10.65;;;4.70;59.40;;;;;;4932679;29;20479;-67
2022/03/10 00:57:49;;;;;;;21.98;12.10;;;4.70;59.30;;;;;;4929713;29;20044;-67
2022/03/10 01:00:15;;;;;;;24.52;12.48;;;4.70;59.30;;;;;;4913933;29;20044;-67
2022/03/10 01:02:41;;;;;;;18.75;11.80;;;4.70;59.10;;;;;;4913817;29;20123;-66
2022/03/10 01:05:08;;;;;;;17.27;11.25;;;4.70;58.90;;;;;;4914640;29;20462;-67
2022/03/10 01:07:34;;;;;;;24.38;11.77;;;4.70;59.10;;;;;;4913805;29;20051;-67
2022/03/10 01:10:01;;;;;;;19.35;11.77;;;4.70;59.10;;;;;;4930983;29;20048;-67
2022/03/10 01:12:26;;;;;;;16.85;11.00;;;4.60;59.30;;;;;;4928135;29;20040;-67
2022/03/10 01:14:52;;;;;;;19.00;11.45;;;4.60;59.40;;;;;;4913793;29;20095;-67
2022/03/10 01:17:18;;;;;;;21.23;10.95;;;4.60;59.50;;;;;;4913848;29;20056;-67
2022/03/10 01:19:45;;;;;;;18.98;11.30;;;4.50;59.50;;;;;;4927127;29;20134;-68
2022/03/10 01:22:11;;;;;;;21.02;11.98;;;4.50;59.50;;;;;;4932695;29;20122;-68
2022/03/10 01:24:36;;;;;;;18.02;12.30;;;4.50;59.60;;;;;;4931002;29;20067;-67
2022/03/10 01:27:03;;;;;;;25.58;11.63;;;4.40;59.60;;;;;;4932107;29;20543;-68
2022/03/10 01:29:28;;;;;;;20.92;11.52;;;4.40;59.50;;;;;;4924440;29;20090;-68
2022/03/10 01:31:54;;;;;;;18.20;11.80;;;4.30;59.50;;;;;;4916440;29;20052;-68
2022/03/10 01:34:20;;;;;;;19.70;10.85;;;4.30;59.50;;;;;;4914757;29;20040;-66
2022/03/10 01:36:45;;;;;;;20.45;11.90;;;4.30;59.50;;;;;;4913804;29;20044;-67
2022/03/10 01:39:11;;;;;;;17.30;11.93;;;4.20;59.60;;;;;;4921650;29;20091;-67
2022/03/10 01:41:37;;;;;;;24.58;12.68;;;4.20;59.60;;;;;;4931914;29;20091;-67
2022/03/10 01:44:08;;;;;;;19.75;11.95;;;4.00;59.70;;;;;;4926489;29;20417;-68
2022/03/10 01:46:34;;;;;;;15.18;10.40;;;4.10;59.80;;;;;;4913543;29;20068;-68
2022/03/10 01:49:00;;;;;;;16.70;10.50;;;4.00;59.90;;;;;;4918010;29;20150;-67
2022/03/10 01:51:26;;;;;;;20.73;11.52;;;4.00;60.00;;;;;;4914665;29;20059;-67
2022/03/10 01:53:52;;;;;;;22.63;11.63;;;4.00;60.10;;;;;;4928906;29;20123;-67
2022/03/10 01:56:19;;;;;;;19.85;10.90;;;4.00;60.10;;;;;;4913201;29;20131;-67
2022/03/10 01:58:46;;;;;;;16.20;10.07;;;3.90;60.00;;;;;;4914006;29;20056;-67
2022/03/10 02:01:12;;;;;;;18.45;10.90;;;3.90;60.10;;;;;;4932015;29;20051;-67
2022/03/10 02:03:38;;;;;;;19.50;11.05;;;4.00;59.90;;;;;;4933310;29;20051;-67
2022/03/10 02:06:05;;;;;;;17.63;11.07;;;4.00;59.90;;;;;;4920100;29;20088;-67
2022/03/10 02:11:15;;;;;;;15.48;10.40;;;4.00;59.90;;;;;;4917173;29;20134;-68
2022/03/10 02:13:41;;;;;;;16.83;11.25;;;3.90;60.00;;;;;;4918262;29;20207;-67
2022/03/10 02:18:55;;;;;;;15.88;10.57;;;3.90;60.20;;;;;;4917476;29;20048;-68
2022/03/10 02:21:21;;;;;;;18.75;10.63;;;3.90;60.00;;;;;;4918599;29;20047;-67
2022/03/10 02:23:47;;;;;;;16.70;10.32;;;3.80;60.10;;;;;;4934696;29;20048;-66
2022/03/10 02:26:13;;;;;;;13.07;8.80;;;3.80;60.00;;;;;;4917668;29;20465;-68
2022/03/10 02:28:40;;;;;;;18.05;10.85;;;3.80;60.10;;;;;;4916882;29;20707;-68
2022/03/10 02:31:06;;;;;;;19.55;9.93;;;3.80;60.30;;;;;;4917524;29;20056;-68
2022/03/10 02:33:32;;;;;;;18.83;11.60;;;3.80;60.40;;;;;;4916634;29;20497;-68
2022/03/10 02:35:58;;;;;;;18.58;10.95;;;3.70;60.40;;;;;;4916609;29;20036;-67
2022/03/10 02:38:24;;;;;;;17.50;10.18;;;3.70;60.40;;;;;;4916524;29;20505;-67
2022/03/10 02:40:50;;;;;;;20.10;11.48;;;3.70;60.30;;;;;;4929390;29;20058;-67
2022/03/10 02:43:17;;;;;;;18.58;10.00;;;3.70;60.20;;;;;;4935960;29;20641;-67
2022/03/10 02:45:43;;;;;;;19.13;11.60;;;3.70;60.30;;;;;;4926987;29;20126;-67
2022/03/10 02:48:09;;;;;;;15.95;10.25;;;3.70;60.20;;;;;;4935061;29;20525;-67
2022/03/10 02:50:34;;;;;;;18.50;12.75;;;3.70;60.10;;;;;;4932305;29;20464;-68
2022/03/10 02:53:00;;;;;;;14.57;10.93;;;3.70;60.20;;;;;;4935174;29;20134;-68
2022/03/10 02:55:26;;;;;;;18.92;10.80;;;3.60;60.20;;;;;;4930104;29;20040;-68
2022/03/10 02:57:51;;;;;;;19.50;10.32;;;3.60;60.40;;;;;;4916649;29;20044;-68
2022/03/10 03:00:18;;;;;;;20.25;11.10;;;3.50;60.50;;;;;;4922209;29;20042;-66
2022/03/10 03:02:44;;;;;;;17.77;11.25;;;3.50;60.60;;;;;;4935518;29;20052;-67
2022/03/10 03:05:14;;;;;;;17.25;10.90;;;3.50;60.50;;;;;;4922648;29;20052;-67
2022/03/10 03:07:40;;;;;;;18.13;11.52;;;3.50;60.50;;;;;;4934942;29;20058;-67
2022/03/10 03:10:07;;;;;;;21.52;12.02;;;3.50;60.50;;;;;;4930234;29;20087;-67
2022/03/10 03:12:33;;;;;;;20.15;12.07;;;3.40;60.50;;;;;;4935174;29;20056;-67
2022/03/10 03:15:00;;;;;;;18.42;12.15;;;3.40;60.60;;;;;;4932486;29;20052;-67
2022/03/10 03:17:26;;;;;;;19.17;11.23;;;3.40;60.70;;;;;;4934796;29;20440;-68
2022/03/10 03:19:52;;;;;;;18.67;11.85;;;3.40;60.90;;;;;;4926678;29;20052;-67
2022/03/10 03:22:18;;;;;;;17.27;11.13;;;3.40;60.80;;;;;;4934724;29;20056;-67
2022/03/10 03:24:45;;;;;;;21.48;12.32;;;3.40;60.80;;;;;;4935095;29;20150;-66
2022/03/10 03:27:13;;;;;;;18.30;10.98;;;3.40;60.70;;;;;;4918196;29;20040;-66
2022/03/10 03:29:39;;;;;;;19.85;11.80;;;3.50;60.70;;;;;;4934921;29;20043;-66
2022/03/10 03:32:05;;;;;;;20.75;12.48;;;3.50;60.50;;;;;;4916903;29;20060;-67
2022/03/10 03:34:31;;;;;;;20.73;12.30;;;3.60;60.40;;;;;;4925066;29;20381;-67
2022/03/10 03:36:57;;;;;;;23.40;13.15;;;3.60;60.30;;;;;;4932223;29;20051;-67
2022/03/10 03:39:23;;;;;;;24.42;13.88;;;3.60;60.40;;;;;;4916730;29;20138;-67
2022/03/10 03:41:49;;;;;;;18.13;11.68;;;3.60;60.30;;;;;;4919827;29;20051;-67
2022/03/10 03:44:14;;;;;;;17.85;12.20;;;3.60;60.40;;;;;;4914602;29;20055;-67
2022/03/10 03:46:41;;;;;;;16.98;11.63;;;3.60;60.20;;;;;;4926060;29;20062;-68
2022/03/10 03:49:10;;;;;;;18.73;11.23;;;3.60;60.20;;;;;;4916593;29;20422;-68
2022/03/10 03:51:36;;;;;;;23.08;12.55;;;3.70;60.20;;;;;;4922392;29;20435;-67
2022/03/10 03:54:02;;;;;;;27.52;14.27;;;3.60;60.20;;;;;;4912955;29;20048;-67
2022/03/10 03:56:28;;;;;;;17.38;12.02;;;3.70;60.30;;;;;;4925142;29;20042;-67
2022/03/10 03:58:54;;;;;;;19.60;11.55;;;3.60;60.20;;;;;;4916704;29;20048;-66
2022/03/10 04:01:19;;;;;;;21.20;12.18;;;3.60;60.20;;;;;;4932941;29;20051;-67
2022/03/10 04:03:45;;;;;;;22.08;11.82;;;3.60;60.30;;;;;;4934737;29;20044;-67
2022/03/10 04:06:11;;;;;;;19.58;11.98;;;3.60;60.30;;;;;;4931980;29;20040;-67
2022/03/10 04:08:37;;;;;;;20.08;12.60;;;3.60;60.70;;;;;;4932885;29;20075;-68
2022/03/10 04:11:03;;;;;;;22.85;12.50;;;3.50;60.70;;;;;;4928877;29;20044;-67
2022/03/10 04:13:29;;;;;;;17.60;11.10;;;3.50;60.60;;;;;;4914501;29;20075;-68
2022/03/10 04:15:54;;;;;;;21.85;13.68;;;3.50;60.60;;;;;;4915752;29;20048;-68
2022/03/10 04:18:20;;;;;;;19.00;11.93;;;3.40;60.60;;;;;;4933461;29;20062;-66
2022/03/10 04:20:47;;;;;;;17.50;11.93;;;3.40;60.70;;;;;;4922307;29;20048;-66
2022/03/10 04:23:13;;;;;;;18.50;12.75;;;3.40;60.80;;;;;;4931129;29;20052;-67
2022/03/10 04:25:39;;;;;;;23.73;12.25;;;3.40;60.70;;;;;;4932607;29;20158;-67
2022/03/10 04:28:05;;;;;;;20.38;11.98;;;3.40;60.80;;;;;;4914278;29;20044;-67
2022/03/10 04:30:34;;;;;;;18.48;11.80;;;3.40;60.80;;;;;;4913986;29;20409;-69
2022/03/10 04:33:01;;;;;;;22.70;12.30;;;3.30;60.80;;;;;;4912893;29;20058;-67
2022/03/10 04:35:27;;;;;;;21.58;12.48;;;3.30;61.00;;;;;;4932764;29;20603;-67
2022/03/10 04:37:53;;;;;;;20.20;12.02;;;3.30;60.90;;;;;;4917847;29;20055;-67
2022/03/10 04:40:20;;;;;;;18.90;10.95;;;3.30;60.90;;;;;;4933022;29;20047;-66
2022/03/10 04:42:46;;;;;;;19.63;12.20;;;3.20;60.90;;;;;;4918689;29;20048;-67
2022/03/10 04:45:12;;;;;;;19.67;11.60;;;3.20;61.10;;;;;;4913669;29;20088;-67
2022/03/10 04:47:40;;;;;;;22.85;12.85;;;3.20;61.20;;;;;;4913510;29;20048;-68
2022/03/10 04:50:07;;;;;;;22.40;11.40;;;3.20;61.20;;;;;;4913546;29;20099;-67
2022/03/10 04:52:32;;;;;;;19.42;12.50;;;3.20;61.20;;;;;;4929373;29;20059;-66
2022/03/10 04:54:58;;;;;;;19.48;13.63;;;3.10;61.10;;;;;;4932268;29;20051;-67
2022/03/10 04:57:24;;;;;;;16.40;11.57;;;3.10;61.20;;;;;;4932314;29;20036;-67
2022/03/10 04:59:50;;;;;;;19.88;11.70;;;3.00;61.30;;;;;;4932939;29;20404;-67
2022/03/10 05:02:16;;;;;;;21.05;12.18;;;3.00;61.60;;;;;;4916373;29;20056;-68
2022/03/10 05:04:42;;;;;;;18.17;12.32;;;3.00;61.60;;;;;;4918122;29;20047;-67
2022/03/10 05:07:07;;;;;;;18.95;11.82;;;3.00;61.70;;;;;;4921050;29;20076;-66
2022/03/10 05:09:33;;;;;;;22.98;12.85;;;3.00;61.60;;;;;;4914227;29;20083;-67
2022/03/10 05:11:58;;;;;;;19.00;12.70;;;3.00;61.70;;;;;;4924430;29;20059;-67
2022/03/10 05:14:24;;;;;;;18.67;11.18;;;2.90;61.70;;;;;;4919529;29;20040;-68
2022/03/10 05:16:50;;;;;;;17.35;11.30;;;2.90;61.80;;;;;;4914092;29;21415;-65
2022/03/10 05:19:16;;;;;;;20.65;12.30;;;2.80;61.90;;;;;;4918325;29;20039;-67
2022/03/10 05:21:42;;;;;;;21.63;12.60;;;2.80;62.10;;;;;;4931506;29;20099;-67
2022/03/10 05:24:08;;;;;;;21.92;12.55;;;2.80;62.20;;;;;;4924415;29;20568;-66
2022/03/10 05:26:34;;;;;;;21.45;13.02;;;2.80;62.30;;;;;;4928623;29;20058;-67
2022/03/10 05:29:00;;;;;;;20.33;13.00;;;2.80;62.50;;;;;;4913194;29;20100;-68
2022/03/10 05:31:27;;;;;;;19.02;12.98;;;2.70;62.40;;;;;;4924969;29;20044;-67
2022/03/10 05:33:52;;;;;;;20.67;12.82;;;2.80;62.30;;;;;;4930116;29;20135;-68
2022/03/10 05:36:18;;;;;;;20.48;12.15;;;2.70;62.70;;;;;;4929137;29;20123;-66
2022/03/10 05:38:43;;;;;;;19.35;12.13;;;2.70;62.70;;;;;;4930648;29;20047;-70
2022/03/10 05:41:09;;;;;;;18.77;11.80;;;2.70;62.90;;;;;;4929930;29;20103;-68
2022/03/10 05:43:35;;;;;;;20.48;13.15;;;2.70;62.90;;;;;;4930605;29;20044;-68
2022/03/10 05:46:01;;;;;;;20.02;12.07;;;2.60;62.90;;;;;;4913930;29;20602;-68
2022/03/10 05:48:27;;;;;;;24.10;12.25;;;2.70;63.00;;;;;;4926851;29;20162;-68
2022/03/10 05:50:53;;;;;;;20.88;12.57;;;2.70;62.80;;;;;;4930369;29;20517;-68
2022/03/10 05:53:18;;;;;;;20.58;12.63;;;2.60;62.70;;;;;;4913235;29;20059;-67
2022/03/10 05:55:45;;;;;;;18.55;12.40;;;2.70;62.70;;;;;;4931271;29;20040;-67
2022/03/10 05:58:13;;;;;;;21.63;12.20;;;2.70;62.60;;;;;;4929150;29;20447;-67
2022/03/10 06:00:39;;;;;;;20.10;13.20;;;2.70;62.60;;;;;;4930737;29;20043;-68
2022/03/10 06:03:06;;;;;;;19.80;13.35;;;2.70;62.60;;;;;;4930433;29;20051;-68
2022/03/10 06:05:33;;;;;;;20.58;12.65;;;2.70;62.60;;;;;;4930518;29;20463;-68
2022/03/10 06:07:59;;;;;;;21.25;13.48;;;2.80;62.50;;;;;;4913086;29;20052;-67
2022/03/10 06:10:25;;;;;;;25.58;12.88;;;2.80;62.50;;;;;;4930840;29;20043;-67
2022/03/10 06:12:51;;;;;;;20.70;12.63;;;2.80;62.50;;;;;;4930116;29;20036;-67
2022/03/10 06:15:17;;;;;;;25.17;13.10;;;2.80;62.60;;;;;;4929340;29;20505;-67
2022/03/10 06:17:43;;;;;;;19.05;12.65;;;2.70;62.60;;;;;;4930154;29;20048;-67
2022/03/10 06:20:11;;;;;;;17.83;12.05;;;2.70;62.70;;;;;;4931528;29;20504;-67
2022/03/10 06:22:36;;;;;;;21.13;13.82;;;2.80;62.90;;;;;;4930954;29;20401;-65
2022/03/10 06:25:04;;;;;;;19.30;12.25;;;2.80;62.90;;;;;;4931171;29;20062;-65
2022/03/10 06:27:30;;;;;;;17.40;11.25;;;2.80;62.90;;;;;;4925598;29;20059;-64
2022/03/10 06:29:56;;;;;;;19.63;12.93;;;2.80;62.90;;;;;;4914750;29;20048;-65
2022/03/10 06:32:24;;;;;;;19.50;13.30;;;2.80;63.00;;;;;;4930649;29;20050;-67
2022/03/10 06:34:51;;;;;;;21.35;12.63;;;2.80;63.20;;;;;;4926463;29;20049;-66
2022/03/10 06:37:18;;;;;;;20.88;12.65;;;2.70;63.20;;;;;;4923049;29;20048;-67
2022/03/10 06:39:44;;;;;;;20.95;13.05;;;2.70;63.30;;;;;;4913784;29;20301;-67
2022/03/10 06:42:10;;;;;;;19.15;11.50;;;2.70;63.40;;;;;;4913403;29;20056;-68
2022/03/10 06:44:36;;;;;;;22.13;12.93;;;2.70;63.60;;;;;;4912278;29;20048;-67
2022/03/10 06:47:09;;;;;;;19.92;13.23;;;2.70;63.70;;;;;;4918745;29;20083;-67
2022/03/10 06:49:35;;;;;;;23.38;12.38;;;2.80;63.80;;;;;;4917560;29;20036;-67
2022/03/10 06:52:01;;;;;;;20.70;12.02;;;2.80;63.90;;;;;;4933904;29;20043;-66
2022/03/10 06:54:27;;;;;;;22.25;12.73;;;2.80;63.80;;;;;;4916733;29;20417;-67
2022/03/10 06:56:52;;;;;;;24.67;14.35;;;2.90;63.80;;;;;;4915469;29;20052;-67
2022/03/10 06:59:18;;;;;;;24.95;12.55;;;2.90;63.70;;;;;;4930750;29;20035;-66
2022/03/10 07:01:44;;;;;;;20.27;13.40;;;3.00;63.80;;;;;;4933871;29;20039;-66
2022/03/10 07:04:09;;;;;;;20.83;13.45;;;3.10;63.70;;;;;;4931874;29;20043;-67
2022/03/10 07:06:35;;;;;;;25.90;14.25;;;3.10;63.70;;;;;;4934572;29;20131;-66
2022/03/10 07:09:01;;;;;;;21.70;14.00;;;3.10;63.70;;;;;;4922166;29;20400;-67
2022/03/10 07:11:27;;;;;;;20.20;13.02;;;3.10;63.70;;;;;;4929240;29;20039;-68
2022/03/10 07:13:52;;;;;;;22.50;13.25;;;3.20;63.70;;;;;;4923299;29;20052;-67
2022/03/10 07:16:18;;;;;;;20.95;13.20;;;3.30;63.80;;;;;;4919785;29;20552;-68
2022/03/10 07:18:50;;;;;;;21.17;12.73;;;3.30;63.90;;;;;;4932072;29;20902;-68
2022/03/10 07:21:17;;;;;;;19.40;11.93;;;3.40;65.20;;;;;;4900726;29;20047;-69
2022/03/10 07:23:43;;;;;;;24.77;12.77;;;3.60;64.60;;;;;;4932284;29;20062;-69
2022/03/10 07:26:10;;;;;;;20.00;12.13;;;3.70;64.20;;;;;;4918718;29;20570;-69
2022/03/10 07:28:36;;;;;;;21.88;12.43;;;3.80;64.10;;;;;;4928457;29;20055;-69
2022/03/10 07:31:02;;;;;;;20.73;12.45;;;3.80;63.80;;;;;;4933809;29;20054;-69
2022/03/10 07:33:27;;;;;;;22.50;13.82;;;3.90;63.80;;;;;;4932315;29;20050;-69
2022/03/10 07:35:53;;;;;;;18.60;12.93;;;4.00;63.70;;;;;;4933118;29;20043;-69
2022/03/10 07:38:19;;;;;;;20.35;12.85;;;4.00;63.50;;;;;;4923069;29;20261;-68
2022/03/10 07:40:44;;;;;;;20.40;13.35;;;4.00;63.70;;;;;;4899422;29;20463;-69
2022/03/10 07:43:10;;;;;;;21.25;12.25;;;4.10;63.90;;;;;;4933854;29;20051;-69
2022/03/10 07:45:35;;;;;;;20.92;13.07;;;4.20;63.80;;;;;;4927044;29;20047;-69
2022/03/10 07:48:01;;;;;;;19.42;12.32;;;4.30;63.70;;;;;;4926598;29;20048;-69
2022/03/10 07:50:27;;;;;;;20.52;12.45;;;4.30;63.60;;;;;;4913913;29;20056;-68
2022/03/10 07:52:52;;;;;;;19.38;13.43;;;4.40;63.70;;;;;;4896517;29;20132;-68
2022/03/10 07:55:18;;;;;;;21.67;13.05;;;4.40;63.40;;;;;;4897511;29;20486;-69
2022/03/10 07:57:44;;;;;;;20.95;12.13;;;4.50;63.50;;;;;;4909951;29;20040;-71
2022/03/10 08:00:10;;;;;;;20.30;12.70;;;4.50;63.30;;;;;;4901936;29;20141;-70
2022/03/10 08:02:37;;;;;;;22.42;14.20;;;4.60;63.70;;;;;;4911223;29;20048;-69
2022/03/10 08:05:03;;;;;;;19.15;13.30;;;4.60;64.00;;;;;;4914112;29;20036;-69
2022/03/10 08:07:32;;;;;;;22.13;13.75;;;4.70;64.30;;;;;;4912478;29;20146;-70
2022/03/10 08:10:00;;;;;;;19.45;12.45;;;4.70;64.40;;;;;;4914483;29;20044;-69
2022/03/10 08:12:30;;;;;;;20.10;12.93;;;4.80;64.60;;;;;;4913598;29;20092;-70
2022/03/10 08:14:57;;;;;;;23.00;12.75;;;4.80;64.60;;;;;;4915957;29;20407;-69
2022/03/10 08:17:23;;;;;;;20.33;11.52;;;4.90;64.20;;;;;;4923373;29;20044;-68
2022/03/10 08:19:49;;;;;;;22.92;12.85;;;4.90;64.30;;;;;;4914273;29;20138;-70
2022/03/10 08:22:16;;;;;;;21.85;14.15;;;5.00;64.40;;;;;;4912613;29;20123;-71
2022/03/10 08:24:43;;;;;;;21.48;14.07;;;5.10;64.20;;;;;;4900977;29;20065;-69
2022/03/10 08:27:08;;;;;;;20.83;13.40;;;5.20;63.80;;;;;;4905134;29;20043;-68
2022/03/10 08:29:34;;;;;;;21.48;12.60;;;5.20;63.70;;;;;;4895422;29;20056;-68
2022/03/10 08:32:00;;;;;;;25.55;13.18;;;5.30;63.60;;;;;;4907240;29;20473;-70
2022/03/10 08:34:25;;;;;;;23.38;13.90;;;5.40;63.60;;;;;;4913602;29;20405;-69
2022/03/10 08:36:51;;;;;;;19.10;13.25;;;5.40;63.10;;;;;;4913995;29;20052;-69
2022/03/10 08:39:17;;;;;;;19.50;12.00;;;5.50;62.40;;;;;;4913540;29;20055;-69
2022/03/10 08:41:44;;;;;;;19.90;12.82;;;5.60;62.90;;;;;;4913573;29;20064;-69
2022/03/10 08:44:12;;;;;;;27.40;13.57;;;5.60;62.60;;;;;;4913764;29;20048;-68
2022/03/10 08:46:38;;;;;;;32.75;14.18;;;5.70;62.00;;;;;;4918811;29;20059;-69
2022/03/10 08:49:04;;;;;;;26.42;14.07;;;5.80;61.90;;;;;;4932364;29;20059;-68
2022/03/10 08:51:30;;;;;;;18.60;12.18;;;5.90;61.30;;;;;;4932342;29;20155;-68
2022/03/10 08:53:55;;;;;;;20.63;12.48;;;6.00;61.00;;;;;;4926852;29;20417;-70
2022/03/10 08:56:21;;;;;;;22.92;13.93;;;6.10;60.70;;;;;;4923802;29;20466;-68
2022/03/10 08:58:47;;;;;;;20.27;13.00;;;6.20;59.70;;;;;;4929117;29;20039;-68
2022/03/10 09:01:12;;;;;;;23.75;12.95;;;6.20;59.30;;;;;;4929708;28;20058;-70
2022/03/10 09:03:38;;;;;;;21.40;13.88;;;6.30;59.40;;;;;;4936121;29;20503;-68
2022/03/10 09:06:04;;;;;;;25.77;14.43;;;6.40;59.40;;;;;;4934184;29;20051;-69
2022/03/10 09:08:30;;;;;;;22.02;13.95;;;6.40;59.40;;;;;;4947777;29;21379;-69
2022/03/10 09:10:56;;;;;;;19.55;12.73;;;6.60;59.30;;;;;;4915417;29;20036;-70
2022/03/10 09:13:22;;;;;;;23.70;13.68;;;6.70;59.40;;;;;;4910135;29;20103;-68
2022/03/10 09:15:48;;;;;;;19.13;12.35;;;6.80;59.20;;;;;;4913040;29;20060;-68
2022/03/10 09:18:14;;;;;;;23.80;13.75;;;6.80;58.80;;;;;;4896255;29;20115;-68
2022/03/10 09:20:40;;;;;;;20.80;14.27;;;7.00;59.20;;;;;;4913429;29;20048;-68
2022/03/10 09:23:06;;;;;;;24.08;13.50;;;7.10;58.90;;;;;;4913151;29;20056;-69
2022/03/10 09:25:31;;;;;;;22.65;13.68;;;7.10;58.90;;;;;;4902489;29;20481;-70
2022/03/10 09:27:57;;;;;;;23.73;14.32;;;7.30;58.30;;;;;;4917559;29;20091;-69
2022/03/10 09:30:22;;;;;;;23.63;15.05;;;7.30;58.50;;;;;;4914228;29;20482;-69
2022/03/10 09:32:48;;;;;;;21.23;14.60;;;7.50;58.40;;;;;;4932204;29;20048;-70
2022/03/10 09:35:15;;;;;;;21.27;13.63;;;7.60;58.10;;;;;;4915120;29;20048;-70
2022/03/10 09:37:41;;;;;;;24.05;13.95;;;7.60;58.40;;;;;;4928712;29;20586;-69
2022/03/10 09:40:08;;;;;;;22.50;14.55;;;7.80;58.10;;;;;;4951107;28;20039;-69
2022/03/10 09:42:35;;;;;;;24.73;14.52;;;7.90;57.80;;;;;;4938016;28;20484;-68
2022/03/10 09:45:04;;;;;;;23.75;14.07;;;8.00;57.80;;;;;;4925379;29;20079;-68
2022/03/10 09:47:31;;;;;;;23.08;13.93;;;8.10;57.60;;;;;;4930358;29;20511;-68
2022/03/10 09:49:57;;;;;;;24.00;13.98;;;8.20;57.50;;;;;;4919105;29;20099;-68
2022/03/10 09:52:23;;;;;;;25.83;14.35;;;8.30;57.30;;;;;;4931606;29;20043;-68
2022/03/10 09:54:49;;;;;;;23.27;14.48;;;8.40;57.20;;;;;;4931865;29;20052;-68
2022/03/10 09:57:16;;;;;;;25.58;15.20;;;8.50;57.20;;;;;;4931883;29;20047;-68
2022/03/10 09:59:50;;;;;;;27.50;15.38;;;8.60;57.00;;;;;;4931249;29;20043;-68
2022/03/10 10:02:16;;;;;;;25.48;15.82;;;8.70;56.70;;;;;;4931829;29;20051;-68
2022/03/10 10:04:43;;;;;;;27.25;14.95;;;8.80;56.70;;;;;;4931527;29;20054;-68
2022/03/10 10:07:10;;;;;;;21.75;14.63;;;8.90;56.30;;;;;;4931046;29;20067;-68
2022/03/10 10:09:47;;;;;;;33.88;15.38;;;9.00;56.00;;;;;;4931752;29;20051;-68
2022/03/10 10:12:15;;;;;;;26.50;17.08;;;9.20;55.40;;;;;;4931414;29;20047;-68
2022/03/10 10:14:43;;;;;;;28.70;15.93;;;9.20;55.60;;;;;;4917118;29;20049;-67
2022/03/10 10:17:10;;;;;;;26.58;16.00;;;9.30;56.00;;;;;;4936884;28;20413;-68
2022/03/10 10:19:37;;;;;;;24.25;14.77;;;9.40;56.30;;;;;;4928970;29;20051;-69
2022/03/10 10:22:16;;;;;;;22.95;14.20;;;9.50;56.10;;;;;;4902286;29;20040;-67
2022/03/10 10:24:57;;;;;;;23.63;15.40;;;9.60;56.20;;;;;;4933832;29;20103;-67
2022/03/10 10:27:25;;;;;;;24.67;14.83;;;9.70;56.10;;;;;;4935307;29;20055;-68
2022/03/10 10:29:56;;;;;;;24.83;14.70;;;9.70;56.20;;;;;;4935021;29;20499;-67
2022/03/10 10:32:30;;;;;;;26.05;16.10;;;9.80;56.10;;;;;;4921744;29;20062;-67
2022/03/10 10:35:08;;;;;;;26.23;16.50;;;9.90;56.00;;;;;;4917802;29;20091;-67
2022/03/10 10:37:36;;;;;;;22.35;14.57;;;10.00;56.00;;;;;;4926873;29;20080;-68
2022/03/10 10:40:04;;;;;;;25.80;16.92;;;10.00;56.10;;;;;;4933545;29;20124;-66
2022/03/10 10:42:35;;;;;;;27.13;16.75;;;10.00;56.20;;;;;;4934683;29;20044;-66
2022/03/10 10:45:02;;;;;;;24.63;16.55;;;10.10;56.30;;;;;;4934653;29;20047;-67
2022/03/10 10:47:28;;;;;;;25.98;16.58;;;10.10;56.40;;;;;;4933899;29;20052;-67
2022/03/10 10:50:00;;;;;;;25.70;15.90;;;10.00;56.20;;;;;;4934719;29;20060;-67
2022/03/10 10:52:36;;;;;;;29.85;19.13;;;10.10;56.20;;;;;;4934359;29;20655;-68
2022/03/10 10:55:11;;;;;;;27.67;17.48;;;10.10;56.30;;;;;;4934527;29;20047;-68
2022/03/10 10:57:38;;;;;;;31.40;17.00;;;10.10;56.20;;;;;;4933640;29;20118;-67
2022/03/10 11:00:05;;;;;;;27.20;16.25;;;10.20;56.00;;;;;;4933779;29;20500;-68
2022/03/10 11:02:31;;;;;;;32.10;16.85;;;10.30;55.50;;;;;;4934862;29;20050;-68
2022/03/10 11:04:58;;;;;;;28.90;18.23;;;10.50;55.60;;;;;;4934138;29;20040;-68
2022/03/10 11:07:24;;;;;;;31.10;17.98;;;10.60;55.10;;;;;;4934497;29;20051;-67
2022/03/10 11:09:53;;;;;;;27.48;16.10;;;10.60;53.90;;;;;;4916118;29;20664;-69
2022/03/10 11:12:19;;;;;;;26.45;16.45;;;10.60;53.90;;;;;;4930782;29;20037;-69
2022/03/10 11:14:47;;;;;;;22.15;14.32;;;10.80;55.40;;;;;;4904445;29;20410;-71
2022/03/10 11:17:15;;;;;;;21.17;11.80;;;10.90;54.50;;;;;;4916626;29;20551;-71
2022/03/10 11:19:49;;;;;;;24.45;12.80;;;11.30;56.90;;;;;;4922851;29;20070;-68
2022/03/10 11:22:23;;;;;;;29.45;17.52;;;11.80;55.40;;;;;;4933016;29;20058;-68
2022/03/10 11:25:07;;;;;;;26.08;14.98;;;12.20;53.90;;;;;;4916066;29;20044;-68
2022/03/10 11:27:47;;;;;;;26.27;16.05;;;12.50;52.40;;;;;;4915856;29;20056;-67
2022/03/10 11:30:13;;;;;;;24.00;15.57;;;12.70;52.00;;;;;;4921930;29;20134;-67
2022/03/10 11:32:38;;;;;;;36.10;17.92;;;12.90;51.50;;;;;;4925369;29;20512;-67
2022/03/10 11:35:04;;;;;;;27.42;16.98;;;12.90;50.90;;;;;;4915546;29;20050;-67
2022/03/10 11:37:45;;;;;;;27.08;17.35;;;12.80;50.40;;;;;;4922871;29;20051;-68
2022/03/10 11:40:16;;;;;;;30.38;18.83;;;12.80;49.50;;;;;;4916634;29;20522;-68
2022/03/10 11:42:42;;;;;;;32.10;19.67;;;12.60;48.80;;;;;;4931006;29;20098;-68
2022/03/10 11:45:16;;;;;;;31.73;18.13;;;12.60;49.80;;;;;;4913937;29;20517;-67
2022/03/10 11:47:42;;;;;;;28.48;17.83;;;12.70;49.60;;;;;;4918336;29;20646;-67
2022/03/10 11:50:23;;;;;;;26.50;16.25;;;12.70;49.60;;;;;;4928428;29;20055;-67
2022/03/10 11:53:05;;;;;;;31.77;19.00;;;12.90;48.70;;;;;;4931265;29;20055;-68
2022/03/10 11:55:40;;;;;;;26.80;16.95;;;13.00;48.40;;;;;;4923166;29;20310;-68
2022/03/10 11:58:07;;;;;;;30.42;18.33;;;13.00;47.80;;;;;;4923129;29;20469;-67
2022/03/10 12:00:48;;;;;;;32.65;19.95;;;13.10;48.00;;;;;;4930000;29;20051;-67
2022/03/10 12:03:37;;;;;;;31.67;18.90;;;13.00;47.50;;;;;;4930629;29;20520;-66
2022/03/10 12:06:15;;;;;;;29.75;18.02;;;13.00;47.30;;;;;;4907559;29;20052;-68
2022/03/10 12:08:42;;;;;;;26.70;17.50;;;13.00;47.00;;;;;;4922779;28;20124;-67
2022/03/10 12:11:14;;;;;;;28.52;17.23;;;13.00;47.60;;;;;;4931037;29;20393;-67
2022/03/10 12:13:44;;;;;;;33.08;19.98;;;13.00;48.00;;;;;;4926950;29;20412;-67
2022/03/10 12:16:27;;;;;;;25.55;17.65;;;13.00;47.80;;;;;;4915692;29;20420;-67
2022/03/10 12:18:59;;;;;;;32.17;17.83;;;13.10;47.60;;;;;;4935599;29;20055;-67
2022/03/10 12:21:27;;;;;;;28.83;17.52;;;13.10;46.80;;;;;;4931943;29;20126;-68
2022/03/10 12:23:59;;;;;;;29.33;18.23;;;13.30;46.90;;;;;;4921327;29;20048;-67
2022/03/10 12:26:25;;;;;;;31.23;18.83;;;13.30;46.20;;;;;;4921736;29;20052;-67
2022/03/10 12:28:53;;;;;;;31.27;18.60;;;13.20;46.50;;;;;;4916177;29;20059;-68
2022/03/10 12:31:19;;;;;;;34.15;19.85;;;13.20;46.40;;;;;;4922814;29;20054;-68
2022/03/10 12:33:48;;;;;;;28.13;17.35;;;13.20;46.60;;;;;;4925849;29;20520;-68
2022/03/10 12:36:22;;;;;;;31.50;18.15;;;13.20;46.50;;;;;;4920203;29;20993;-68
2022/03/10 12:38:49;;;;;;;32.55;18.90;;;13.20;46.30;;;;;;4929912;29;20055;-68
2022/03/10 12:41:17;;;;;;;33.00;19.48;;;13.30;46.20;;;;;;4925022;29;20083;-68